Time;durP1;ratioP1;P1;durP2;ratioP2;P2;SDS_P1;SDS_P2;PMS_P1;PMS_P2;Temp;Humidity;BMP_temperature;BMP_pressure;BME280_temperature;BME280_humidity;BME280_pressure;Samples;Min_cycle;Max_cycle;Signal;HPM_P1;HPM_P2
2023/01/04 00:00:22;;;;;;;15.20;7.45;;;5.10;99.90;;;;;;472215;250;27439;-79
2023/01/04 00:02:23;;;;;;;12.60;7.45;;;5.10;99.90;;;;;;472166;250;27570;-77
2023/01/04 00:04:24;;;;;;;16.37;5.80;;;5.00;99.90;;;;;;472226;250;28081;-79
2023/01/04 00:06:26;;;;;;;10.20;7.65;;;5.00;99.90;;;;;;472213;250;27889;-76
2023/01/04 00:08:27;;;;;;;8.80;6.57;;;5.10;99.90;;;;;;472185;250;27530;-78
2023/01/04 00:10:28;;;;;;;8.38;6.30;;;5.00;99.90;;;;;;472188;250;27582;-79
2023/01/04 00:12:29;;;;;;;10.35;7.25;;;5.10;99.90;;;;;;472197;250;27454;-79
2023/01/04 00:14:31;;;;;;;7.53;6.07;;;5.10;99.90;;;;;;472218;250;27474;-79
2023/01/04 00:16:32;;;;;;;9.05;7.50;;;5.10;99.90;;;;;;472198;251;27534;-77
2023/01/04 00:18:33;;;;;;;8.15;5.75;;;5.10;99.90;;;;;;472180;250;28022;-78
2023/01/04 00:20:34;;;;;;;8.25;6.22;;;5.10;99.90;;;;;;472196;250;27968;-79
2023/01/04 00:22:36;;;;;;;7.55;6.62;;;5.20;99.90;;;;;;472194;250;27912;-78
2023/01/04 00:24:37;;;;;;;11.38;6.10;;;5.10;99.90;;;;;;472238;250;27454;-79
2023/01/04 00:26:38;;;;;;;8.50;6.37;;;5.20;99.90;;;;;;472187;246;27485;-76
2023/01/04 00:28:39;;;;;;;12.10;8.52;;;5.20;99.90;;;;;;472182;251;27578;-77
2023/01/04 00:30:41;;;;;;;11.48;6.72;;;5.10;99.90;;;;;;472170;252;27459;-77
2023/01/04 00:32:42;;;;;;;9.57;6.00;;;5.00;99.90;;;;;;472225;250;27506;-79
2023/01/04 00:34:43;;;;;;;7.47;5.90;;;5.10;99.90;;;;;;472241;250;28046;-79
2023/01/04 00:36:44;;;;;;;9.77;5.93;;;5.10;99.90;;;;;;472227;250;27929;-78
2023/01/04 00:38:46;;;;;;;9.82;7.80;;;5.10;99.90;;;;;;472189;250;27482;-78
2023/01/04 00:40:47;;;;;;;14.43;7.85;;;5.10;99.90;;;;;;472193;250;27482;-79
2023/01/04 00:42:48;;;;;;;8.98;7.07;;;5.10;99.90;;;;;;472188;250;27548;-79
2023/01/04 00:44:49;;;;;;;7.72;6.00;;;5.10;99.90;;;;;;472189;250;27561;-76
2023/01/04 00:46:51;;;;;;;12.60;7.85;;;5.10;99.90;;;;;;472181;250;27421;-78
2023/01/04 00:48:52;;;;;;;12.70;8.40;;;5.10;99.90;;;;;;472206;247;27657;-78
2023/01/04 00:50:53;;;;;;;15.07;8.25;;;5.10;99.90;;;;;;472174;250;27906;-77
2023/01/04 00:52:55;;;;;;;8.13;6.40;;;5.10;99.90;;;;;;472192;250;27439;-78
2023/01/04 00:54:56;;;;;;;11.85;7.45;;;5.10;99.90;;;;;;472213;250;27458;-80
2023/01/04 00:56:57;;;;;;;11.23;7.00;;;5.10;99.90;;;;;;472223;250;27534;-80
2023/01/04 00:58:58;;;;;;;10.48;7.15;;;5.10;99.90;;;;;;472189;250;27614;-79
2023/01/04 01:01:00;;;;;;;11.20;7.75;;;5.10;99.90;;;;;;472201;250;27455;-79
2023/01/04 01:03:01;;;;;;;16.98;8.88;;;5.10;99.90;;;;;;472198;250;27909;-79
2023/01/04 01:05:02;;;;;;;12.48;8.43;;;5.10;99.90;;;;;;472207;250;28016;-78
2023/01/04 01:07:03;;;;;;;10.90;7.80;;;5.00;99.90;;;;;;472205;251;27533;-77
2023/01/04 01:09:05;;;;;;;10.35;7.60;;;5.10;99.90;;;;;;472179;250;27527;-77
2023/01/04 01:11:06;;;;;;;12.15;7.25;;;5.10;99.90;;;;;;472203;250;27458;-76
2023/01/04 01:13:07;;;;;;;9.65;7.03;;;5.10;99.90;;;;;;472229;246;27549;-79
2023/01/04 01:15:08;;;;;;;8.23;6.10;;;5.20;99.90;;;;;;472244;250;27467;-77
2023/01/04 01:17:10;;;;;;;10.68;7.35;;;5.20;99.90;;;;;;472238;250;27901;-77
2023/01/04 01:19:11;;;;;;;9.95;6.93;;;5.20;99.90;;;;;;472220;250;28175;-77
2023/01/04 01:21:12;;;;;;;10.77;7.40;;;5.20;99.90;;;;;;472224;250;27415;-79
2023/01/04 01:23:13;;;;;;;8.00;6.50;;;5.20;99.90;;;;;;472227;251;27462;-80
2023/01/04 01:25:15;;;;;;;8.00;5.87;;;5.20;99.90;;;;;;472230;250;27509;-78
2023/01/04 01:27:16;;;;;;;9.77;6.18;;;5.20;99.90;;;;;;472220;250;27470;-76
2023/01/04 01:29:17;;;;;;;7.20;5.87;;;5.20;99.90;;;;;;472249;250;27498;-76
2023/01/04 01:31:18;;;;;;;10.77;6.75;;;5.30;99.90;;;;;;472249;250;28875;-79
2023/01/04 01:33:20;;;;;;;13.30;8.27;;;5.20;99.90;;;;;;472294;250;27889;-79
2023/01/04 01:35:21;;;;;;;9.13;6.07;;;5.20;99.90;;;;;;472261;252;27482;-79
2023/01/04 01:37:22;;;;;;;10.02;6.30;;;5.20;99.90;;;;;;472267;250;27434;-79
2023/01/04 01:39:23;;;;;;;12.15;7.20;;;5.20;99.90;;;;;;472235;246;27485;-80
2023/01/04 01:41:25;;;;;;;11.02;7.28;;;5.20;99.90;;;;;;472232;251;27523;-79
2023/01/04 01:43:26;;;;;;;9.45;6.35;;;5.30;99.90;;;;;;472243;250;27526;-80
2023/01/04 01:45:27;;;;;;;7.50;5.85;;;5.30;99.90;;;;;;472234;250;27953;-76
2023/01/04 01:47:28;;;;;;;10.55;7.50;;;5.30;99.90;;;;;;472229;250;27972;-76
2023/01/04 01:49:30;;;;;;;10.15;7.37;;;5.30;99.90;;;;;;472230;251;27462;-77
2023/01/04 01:51:31;;;;;;;7.97;6.85;;;5.30;99.90;;;;;;472238;250;27433;-80
2023/01/04 01:53:32;;;;;;;11.15;6.87;;;5.30;99.90;;;;;;472189;250;27438;-76
2023/01/04 01:55:34;;;;;;;8.05;5.78;;;5.30;99.90;;;;;;472229;250;27508;-77
2023/01/04 01:57:35;;;;;;;10.02;6.75;;;5.30;99.90;;;;;;472264;250;27415;-79
2023/01/04 01:59:36;;;;;;;10.13;6.45;;;5.30;99.90;;;;;;472220;252;27958;-79
2023/01/04 02:01:37;;;;;;;9.63;6.20;;;5.30;99.90;;;;;;472212;250;27912;-77
2023/01/04 02:03:39;;;;;;;13.85;6.70;;;5.30;99.90;;;;;;472253;250;27462;-79
2023/01/04 02:05:40;;;;;;;9.57;6.60;;;5.30;99.90;;;;;;472268;252;27478;-79
2023/01/04 02:07:41;;;;;;;8.25;5.95;;;5.30;99.90;;;;;;472244;251;27885;-78
2023/01/04 02:09:42;;;;;;;11.98;6.40;;;5.30;99.90;;;;;;472263;250;27917;-79
2023/01/04 02:11:44;;;;;;;8.32;5.78;;;5.30;99.90;;;;;;472219;250;27505;-78
2023/01/04 02:16:05;;;;;;;10.77;5.40;;;5.30;99.90;;;;;;472243;252;28104;-78
2023/01/04 02:18:06;;;;;;;8.85;6.35;;;5.40;99.90;;;;;;472223;251;27435;-77
2023/01/04 02:20:07;;;;;;;6.60;5.40;;;5.30;99.90;;;;;;472261;250;27469;-78
2023/01/04 02:22:09;;;;;;;9.60;5.15;;;5.30;99.90;;;;;;472188;252;27470;-79
2023/01/04 02:24:11;;;;;;;13.45;6.55;;;5.30;99.90;;;;;;472254;251;27458;-77
2023/01/04 02:26:12;;;;;;;12.05;6.05;;;5.30;99.90;;;;;;472265;251;27893;-79
2023/01/04 02:28:13;;;;;;;11.63;5.65;;;5.30;99.90;;;;;;472281;250;27462;-80
2023/01/04 02:30:14;;;;;;;8.05;5.70;;;5.30;99.90;;;;;;472212;250;27451;-77
2023/01/04 02:32:16;;;;;;;9.13;5.20;;;5.30;99.90;;;;;;472285;250;27438;-80
2023/01/04 02:34:17;;;;;;;6.93;5.30;;;5.40;99.90;;;;;;472291;250;27466;-79
2023/01/04 02:36:18;;;;;;;6.70;5.15;;;5.30;99.90;;;;;;472220;251;27443;-77
2023/01/04 02:38:19;;;;;;;9.57;5.80;;;5.30;99.90;;;;;;472223;250;27981;-77
2023/01/04 02:40:21;;;;;;;7.78;5.97;;;5.30;99.90;;;;;;472246;250;29050;-77
2023/01/04 02:42:22;;;;;;;7.30;5.60;;;5.40;99.90;;;;;;472231;251;27442;-78
2023/01/04 02:46:43;;;;;;;7.75;5.30;;;5.30;99.90;;;;;;472207;252;27510;-78
2023/01/04 02:51:03;;;;;;;6.47;4.80;;;5.30;99.90;;;;;;472165;246;28044;-77
2023/01/04 02:53:04;;;;;;;7.82;6.00;;;5.40;99.90;;;;;;472186;250;27954;-77
2023/01/04 02:55:06;;;;;;;8.27;5.40;;;5.40;99.90;;;;;;472145;250;27462;-79
2023/01/04 02:57:07;;;;;;;7.78;4.90;;;5.40;99.90;;;;;;472156;250;27512;-78
2023/01/04 02:59:08;;;;;;;9.65;5.30;;;5.40;99.90;;;;;;472236;250;27431;-80
2023/01/04 03:08:09;;;;;;;14.95;5.45;;;5.30;99.90;;;;;;472222;252;27487;-76
2023/01/04 03:10:10;;;;;;;9.00;5.85;;;5.30;99.90;;;;;;472218;250;27597;-76
2023/01/04 03:14:30;;;;;;;7.62;5.35;;;5.30;99.90;;;;;;472154;252;27482;-77
2023/01/04 03:16:32;;;;;;;11.85;4.80;;;5.30;99.90;;;;;;472213;250;27458;-76
2023/01/04 03:18:33;;;;;;;8.25;5.20;;;5.30;99.90;;;;;;472232;250;27426;-75
2023/01/04 03:20:34;;;;;;;6.72;4.78;;;5.30;99.90;;;;;;472203;251;27450;-76
2023/01/04 03:36:20;;;;;;;10.27;5.10;;;5.30;99.90;;;;;;472119;246;27540;-78
2023/01/04 03:49:59;;;;;;;7.32;4.78;;;5.40;99.90;;;;;;472152;246;27478;-76
2023/01/04 03:52:01;;;;;;;9.23;4.65;;;5.50;99.90;;;;;;472213;250;27955;-77
2023/01/04 03:54:05;;;;;;;5.93;4.32;;;5.50;99.90;;;;;;472215;247;27984;-77
2023/01/04 03:56:03;;;;;;;8.15;4.87;;;5.50;99.90;;;;;;471857;252;27481;-76
2023/01/04 03:58:04;;;;;;;8.95;4.20;;;5.60;99.90;;;;;;472205;251;27511;-77
2023/01/04 04:00:06;;;;;;;10.30;4.93;;;5.60;99.90;;;;;;472213;250;27556;-76
2023/01/04 04:02:12;;;;;;;6.45;3.85;;;5.60;99.90;;;;;;472224;250;27557;-81
2023/01/04 04:08:48;;;;;;;6.80;4.15;;;5.70;99.90;;;;;;472217;252;27563;-77
2023/01/04 04:10:49;;;;;;;6.50;3.80;;;5.70;99.90;;;;;;472189;250;27439;-76
2023/01/04 04:12:51;;;;;;;6.47;4.00;;;5.70;99.90;;;;;;472205;250;27473;-76
2023/01/04 04:14:51;;;;;;;7.12;4.30;;;5.70;99.90;;;;;;472223;251;27976;-75
2023/01/04 04:16:53;;;;;;;7.22;4.35;;;5.70;99.90;;;;;;472246;250;27969;-76
2023/01/04 04:18:54;;;;;;;7.93;3.87;;;5.80;99.90;;;;;;472256;250;27526;-75
2023/01/04 04:20:55;;;;;;;7.62;3.60;;;5.70;99.90;;;;;;472220;250;27455;-76
2023/01/04 04:22:56;;;;;;;6.95;3.87;;;5.80;99.90;;;;;;472227;250;27458;-79
2023/01/04 04:24:58;;;;;;;7.35;4.07;;;5.80;99.90;;;;;;472270;250;27592;-80
2023/01/04 04:26:59;;;;;;;7.10;4.07;;;5.80;99.90;;;;;;472224;250;27466;-76
2023/01/04 04:29:00;;;;;;;5.05;3.40;;;5.80;99.90;;;;;;472236;250;27964;-80
2023/01/04 04:31:01;;;;;;;4.93;3.62;;;5.80;99.90;;;;;;472190;252;27999;-75
2023/01/04 04:33:03;;;;;;;8.77;3.70;;;5.80;99.90;;;;;;472205;250;27546;-80
2023/01/04 04:35:04;;;;;;;6.35;3.60;;;5.90;99.90;;;;;;472250;250;27589;-79
2023/01/04 04:37:05;;;;;;;9.77;3.90;;;5.90;99.90;;;;;;472199;250;27438;-80
2023/01/04 04:39:06;;;;;;;5.20;3.60;;;5.90;99.90;;;;;;472217;247;27590;-81
2023/01/04 04:43:27;;;;;;;12.18;3.58;;;5.90;99.90;;;;;;472142;252;27434;-75
2023/01/04 04:45:28;;;;;;;5.80;3.80;;;5.90;99.90;;;;;;472199;250;27554;-76
2023/01/04 04:47:30;;;;;;;9.05;3.60;;;5.90;99.90;;;;;;472170;250;27466;-75
2023/01/04 04:49:31;;;;;;;3.40;3.00;;;5.90;99.90;;;;;;472132;250;27478;-75
2023/01/04 04:51:32;;;;;;;4.87;3.15;;;5.90;99.90;;;;;;472204;250;27530;-76
2023/01/04 04:53:34;;;;;;;8.73;4.10;;;6.00;99.90;;;;;;472229;251;28053;-77
2023/01/04 04:55:35;;;;;;;7.90;3.70;;;5.90;99.90;;;;;;472214;250;27940;-79
2023/01/04 04:57:36;;;;;;;6.72;3.22;;;6.00;99.90;;;;;;472179;251;27515;-76
2023/01/04 04:59:37;;;;;;;8.07;4.03;;;6.00;99.90;;;;;;472175;250;27565;-75
2023/01/04 05:01:39;;;;;;;8.10;3.60;;;6.00;99.90;;;;;;472228;250;27458;-79
2023/01/04 05:03:40;;;;;;;6.55;3.40;;;6.00;99.90;;;;;;472202;250;27482;-76
2023/01/04 05:05:41;;;;;;;5.15;3.40;;;6.10;99.90;;;;;;472193;250;27473;-76
2023/01/04 05:07:42;;;;;;;5.43;3.35;;;6.10;99.90;;;;;;472179;251;28097;-79
2023/01/04 05:09:44;;;;;;;5.30;3.28;;;6.10;99.90;;;;;;472198;252;27952;-77
2023/01/04 05:14:04;;;;;;;5.45;3.72;;;6.10;99.90;;;;;;472169;252;27415;-76
2023/01/04 05:16:05;;;;;;;7.37;4.03;;;6.10;99.90;;;;;;472184;250;27566;-81
2023/01/04 05:18:07;;;;;;;5.12;3.72;;;6.10;99.90;;;;;;472184;250;27442;-77
2023/01/04 05:20:08;;;;;;;12.55;3.80;;;6.10;99.90;;;;;;472227;250;27418;-77
2023/01/04 05:22:09;;;;;;;5.80;3.35;;;6.10;99.90;;;;;;472252;250;27471;-78
2023/01/04 05:24:10;;;;;;;6.35;3.72;;;6.10;99.90;;;;;;472194;250;27958;-80
2023/01/04 05:26:12;;;;;;;7.90;4.12;;;6.10;99.90;;;;;;472217;250;27960;-81
2023/01/04 05:28:13;;;;;;;5.68;3.10;;;6.10;99.90;;;;;;472219;250;27550;-77
2023/01/04 05:32:34;;;;;;;5.37;3.80;;;6.10;99.90;;;;;;472186;252;27574;-75
2023/01/04 05:34:35;;;;;;;7.20;3.85;;;6.10;99.90;;;;;;472196;250;27510;-77
2023/01/04 05:36:36;;;;;;;5.15;4.00;;;6.10;99.90;;;;;;472186;250;27514;-80
2023/01/04 05:38:38;;;;;;;6.82;3.90;;;6.10;99.90;;;;;;472221;250;27486;-80
2023/01/04 05:40:39;;;;;;;6.25;3.95;;;6.10;99.90;;;;;;472214;250;27430;-76
2023/01/04 05:42:40;;;;;;;5.85;3.97;;;6.10;99.90;;;;;;472155;250;27961;-76
2023/01/04 05:44:41;;;;;;;8.55;3.87;;;6.10;99.90;;;;;;472191;250;28103;-78
2023/01/04 05:46:43;;;;;;;5.40;3.87;;;6.10;99.90;;;;;;472230;250;27490;-76
2023/01/04 05:48:44;;;;;;;7.87;3.78;;;6.10;99.90;;;;;;472214;250;27489;-80
2023/01/04 05:50:45;;;;;;;10.93;3.70;;;6.10;99.90;;;;;;472201;250;27606;-76
2023/01/04 05:52:47;;;;;;;9.73;4.13;;;6.10;99.90;;;;;;472207;247;27506;-80
2023/01/04 05:54:48;;;;;;;7.03;3.60;;;6.10;99.90;;;;;;472232;250;28901;-80
2023/01/04 05:56:49;;;;;;;11.40;3.58;;;6.10;99.90;;;;;;472208;250;27970;-80
2023/01/04 05:58:50;;;;;;;12.07;3.83;;;6.00;99.90;;;;;;472201;250;27967;-77
2023/01/04 06:00:52;;;;;;;7.50;3.70;;;6.00;99.90;;;;;;472178;251;27546;-74
2023/01/04 06:02:54;;;;;;;4.85;3.10;;;6.00;99.90;;;;;;472178;250;27505;-80
2023/01/04 06:04:54;;;;;;;5.80;3.83;;;6.00;99.90;;;;;;472183;252;27470;-79
2023/01/04 06:06:55;;;;;;;5.00;3.60;;;6.00;99.90;;;;;;472243;251;27526;-80
2023/01/04 06:08:57;;;;;;;6.60;4.00;;;6.00;99.90;;;;;;472213;250;27952;-76
2023/01/04 06:10:58;;;;;;;6.85;3.90;;;6.00;99.90;;;;;;472256;250;27905;-79
2023/01/04 06:12:59;;;;;;;9.10;3.85;;;5.90;99.90;;;;;;472267;251;27455;-79
2023/01/04 06:15:00;;;;;;;7.75;3.70;;;5.90;99.90;;;;;;472308;250;27465;-79
2023/01/04 06:17:02;;;;;;;6.37;3.67;;;6.00;99.90;;;;;;472261;250;27503;-80
2023/01/04 06:19:03;;;;;;;5.75;3.30;;;6.00;99.90;;;;;;472263;246;27501;-74
2023/01/04 06:21:04;;;;;;;6.35;3.28;;;6.00;99.90;;;;;;472251;250;27422;-75
2023/01/04 06:23:06;;;;;;;4.10;3.15;;;6.00;99.90;;;;;;472265;250;27890;-79
2023/01/04 06:25:07;;;;;;;5.50;3.28;;;6.00;99.90;;;;;;472256;250;28079;-79
2023/01/04 06:27:08;;;;;;;3.25;2.80;;;6.00;99.90;;;;;;472223;250;27511;-75
2023/01/04 06:29:09;;;;;;;8.32;3.28;;;5.90;99.90;;;;;;472200;250;27490;-76
2023/01/04 06:31:10;;;;;;;7.12;3.12;;;6.00;99.90;;;;;;472197;250;27575;-74
2023/01/04 06:33:12;;;;;;;5.22;2.97;;;6.00;99.90;;;;;;472224;250;27568;-74
2023/01/04 06:35:13;;;;;;;3.22;2.92;;;6.00;99.90;;;;;;472230;251;27563;-75
2023/01/04 06:37:14;;;;;;;4.30;2.75;;;6.00;99.90;;;;;;472217;250;27936;-79
2023/01/04 06:39:15;;;;;;;2.72;2.53;;;6.00;99.90;;;;;;472167;251;28028;-75
2023/01/04 06:41:17;;;;;;;3.12;2.22;;;6.00;99.90;;;;;;472221;246;27439;-78
2023/01/04 06:43:18;;;;;;;3.30;3.00;;;6.00;99.90;;;;;;472228;246;27459;-75
2023/01/04 06:45:19;;;;;;;6.53;2.92;;;6.00;99.90;;;;;;472215;250;27466;-77
2023/01/04 06:47:20;;;;;;;2.95;2.65;;;6.00;99.90;;;;;;472192;250;27570;-73
2023/01/04 06:49:22;;;;;;;4.62;2.45;;;6.00;99.90;;;;;;472195;250;27463;-76
2023/01/04 06:51:23;;;;;;;4.07;2.70;;;6.00;99.90;;;;;;472203;251;28041;-76
2023/01/04 06:53:24;;;;;;;3.80;2.85;;;6.00;99.90;;;;;;472238;247;27912;-74
2023/01/04 06:55:26;;;;;;;8.07;2.65;;;6.00;99.90;;;;;;472223;250;27450;-74
2023/01/04 06:57:27;;;;;;;4.00;2.80;;;6.00;99.90;;;;;;472230;247;27427;-75
2023/01/04 06:59:28;;;;;;;4.10;2.75;;;6.10;99.90;;;;;;472198;250;27457;-76
2023/01/04 07:01:29;;;;;;;5.68;2.75;;;6.10;99.90;;;;;;472218;250;27541;-75
2023/01/04 07:03:31;;;;;;;16.77;4.35;;;6.00;99.90;;;;;;472242;250;27493;-75
2023/01/04 07:05:32;;;;;;;3.17;2.62;;;6.00;99.90;;;;;;472207;250;27933;-75
2023/01/04 07:07:34;;;;;;;8.75;3.40;;;6.10;99.90;;;;;;472200;250;27937;-74
2023/01/04 07:09:35;;;;;;;3.30;2.80;;;6.00;99.90;;;;;;472181;251;27502;-75
2023/01/04 07:11:36;;;;;;;4.12;2.95;;;6.10;99.90;;;;;;472244;247;27585;-80
2023/01/04 07:13:37;;;;;;;7.87;2.92;;;6.10;99.90;;;;;;472229;250;27431;-79
2023/01/04 07:15:38;;;;;;;4.47;3.15;;;6.10;99.90;;;;;;472223;250;27469;-75
2023/01/04 07:17:39;;;;;;;3.45;2.70;;;6.10;99.90;;;;;;472186;250;27434;-78
2023/01/04 07:19:41;;;;;;;4.82;3.30;;;6.10;99.90;;;;;;472228;251;28107;-75
2023/01/04 07:21:42;;;;;;;4.07;2.75;;;6.10;99.90;;;;;;472239;250;28001;-76
2023/01/04 07:23:43;;;;;;;5.57;3.12;;;6.20;99.90;;;;;;472233;250;27450;-79
2023/01/04 07:25:44;;;;;;;3.80;2.97;;;6.20;99.90;;;;;;472211;250;27466;-76
2023/01/04 07:27:46;;;;;;;4.10;3.10;;;6.20;99.90;;;;;;472195;251;27427;-80
2023/01/04 07:29:47;;;;;;;4.32;3.00;;;6.20;99.90;;;;;;472218;250;27473;-74
2023/01/04 07:31:48;;;;;;;5.37;3.03;;;6.30;99.90;;;;;;472237;250;27514;-76
2023/01/04 07:33:49;;;;;;;4.55;3.17;;;6.30;99.90;;;;;;472214;250;27906;-73
2023/01/04 07:35:51;;;;;;;4.68;3.05;;;6.30;99.90;;;;;;472232;250;27968;-79
2023/01/04 07:37:52;;;;;;;3.67;2.80;;;6.30;99.90;;;;;;472200;252;27522;-79
2023/01/04 07:39:53;;;;;;;4.10;2.60;;;6.30;99.90;;;;;;472217;250;27558;-80
2023/01/04 07:41:54;;;;;;;7.87;2.85;;;6.30;99.90;;;;;;472270;250;27946;-79
2023/01/04 07:43:56;;;;;;;3.72;2.70;;;6.30;99.90;;;;;;472250;250;27555;-79
2023/01/04 07:45:57;;;;;;;4.53;2.90;;;6.30;99.90;;;;;;472240;250;27974;-78
2023/01/04 07:47:58;;;;;;;6.30;3.00;;;6.40;99.90;;;;;;472258;250;28046;-79
2023/01/04 07:50:00;;;;;;;6.68;3.35;;;6.30;99.90;;;;;;472239;250;27503;-77
2023/01/04 07:52:01;;;;;;;5.35;3.47;;;6.30;99.90;;;;;;472268;251;27641;-75
2023/01/04 07:54:02;;;;;;;3.35;2.60;;;6.40;99.90;;;;;;472258;250;27536;-74
2023/01/04 07:56:03;;;;;;;4.43;2.90;;;6.40;99.90;;;;;;472214;250;27565;-75
2023/01/04 07:58:05;;;;;;;6.40;3.47;;;6.40;99.90;;;;;;472235;250;27503;-74
2023/01/04 08:00:06;;;;;;;4.53;2.97;;;6.40;99.90;;;;;;472148;250;27712;-79
2023/01/04 08:02:07;;;;;;;5.05;3.50;;;6.40;99.90;;;;;;472242;251;29311;-76
2023/01/04 08:04:08;;;;;;;4.82;3.40;;;6.40;99.90;;;;;;472243;250;27964;-75
2023/01/04 08:06:10;;;;;;;3.50;2.90;;;6.40;99.90;;;;;;472199;247;27585;-75
2023/01/04 08:08:11;;;;;;;7.32;4.15;;;6.40;99.90;;;;;;472184;251;27465;-75
2023/01/04 08:10:12;;;;;;;4.15;2.80;;;6.50;99.90;;;;;;472201;250;27553;-74
2023/01/04 08:12:13;;;;;;;5.65;3.60;;;6.50;99.90;;;;;;472229;250;27509;-76
2023/01/04 08:14:15;;;;;;;4.68;3.58;;;6.40;99.90;;;;;;472183;250;27500;-74
2023/01/04 08:16:16;;;;;;;4.55;3.42;;;6.40;99.90;;;;;;472182;251;27937;-76
2023/01/04 08:18:17;;;;;;;5.00;3.08;;;6.50;99.90;;;;;;472199;250;27577;-75
2023/01/04 08:20:18;;;;;;;6.75;3.30;;;6.40;99.90;;;;;;472226;250;27582;-80
2023/01/04 08:22:20;;;;;;;5.10;3.25;;;6.50;99.90;;;;;;472238;250;27534;-76
2023/01/04 08:24:21;;;;;;;3.87;2.80;;;6.50;99.90;;;;;;472192;250;27486;-74
2023/01/04 08:26:22;;;;;;;4.15;3.40;;;6.50;99.90;;;;;;472169;249;27584;-79
2023/01/04 08:28:23;;;;;;;5.40;3.00;;;6.50;99.90;;;;;;472219;250;28615;-73
2023/01/04 08:30:25;;;;;;;6.05;3.62;;;6.50;99.90;;;;;;472228;250;28944;-74
2023/01/04 08:32:26;;;;;;;5.40;3.87;;;6.50;99.90;;;;;;472209;250;28066;-74
2023/01/04 08:34:28;;;;;;;5.00;3.15;;;6.50;99.90;;;;;;472189;250;27427;-76
2023/01/04 08:36:28;;;;;;;3.90;3.10;;;6.50;99.90;;;;;;472150;252;27481;-74
2023/01/04 08:38:30;;;;;;;3.90;3.53;;;6.50;99.90;;;;;;472221;250;28861;-73
2023/01/04 08:40:31;;;;;;;3.62;3.33;;;6.60;99.90;;;;;;472228;250;28907;-78
2023/01/04 08:42:32;;;;;;;4.23;3.43;;;6.60;99.90;;;;;;472223;250;27474;-78
2023/01/04 08:44:34;;;;;;;4.57;3.10;;;6.60;99.90;;;;;;472171;250;28252;-76
2023/01/04 08:46:35;;;;;;;8.00;3.50;;;6.60;99.90;;;;;;472177;250;27612;-76
2023/01/04 08:48:36;;;;;;;6.93;3.62;;;6.60;99.90;;;;;;472122;251;30275;-76
2023/01/04 08:50:37;;;;;;;4.75;3.30;;;6.60;99.90;;;;;;472261;250;27975;-79
2023/01/04 08:52:38;;;;;;;7.60;3.60;;;6.60;99.90;;;;;;472216;250;27461;-80
2023/01/04 08:54:40;;;;;;;5.90;3.70;;;6.60;99.90;;;;;;472200;252;27498;-76
2023/01/04 08:56:41;;;;;;;5.25;3.50;;;6.60;99.90;;;;;;472200;252;27518;-78
2023/01/04 08:58:42;;;;;;;7.25;3.60;;;6.60;99.90;;;;;;472202;250;27477;-79
2023/01/04 09:00:43;;;;;;;7.63;3.37;;;6.60;99.90;;;;;;472197;250;27873;-76
2023/01/04 09:02:45;;;;;;;6.90;3.30;;;6.70;99.90;;;;;;472195;252;29442;-78
2023/01/04 09:04:46;;;;;;;9.80;4.00;;;6.70;99.90;;;;;;472196;250;27894;-79
2023/01/04 09:06:47;;;;;;;8.73;3.63;;;6.70;99.90;;;;;;472175;251;28058;-76
2023/01/04 09:08:49;;;;;;;8.10;3.50;;;6.70;99.90;;;;;;472218;250;28914;-79
2023/01/04 09:10:50;;;;;;;7.15;4.45;;;6.70;99.90;;;;;;472242;251;28854;-76
2023/01/04 09:12:51;;;;;;;6.83;3.50;;;6.70;99.90;;;;;;472198;250;27546;-77
2023/01/04 09:14:52;;;;;;;7.17;3.40;;;6.70;99.90;;;;;;472194;250;28903;-75
2023/01/04 09:16:54;;;;;;;5.23;3.30;;;6.80;99.90;;;;;;472187;251;28131;-76
2023/01/04 09:18:55;;;;;;;6.57;3.60;;;6.70;99.90;;;;;;472233;250;28016;-78
2023/01/04 09:20:56;;;;;;;4.80;3.47;;;6.80;99.90;;;;;;472247;251;27881;-76
2023/01/04 09:22:57;;;;;;;5.23;4.23;;;6.80;99.90;;;;;;472192;250;28907;-78
2023/01/04 09:24:59;;;;;;;5.20;3.57;;;6.80;99.90;;;;;;472220;250;27981;-76
2023/01/04 09:27:00;;;;;;;7.17;4.07;;;6.80;99.90;;;;;;472241;250;28517;-79
2023/01/04 09:29:02;;;;;;;7.43;3.93;;;6.80;99.90;;;;;;472214;251;28484;-78
2023/01/04 09:31:02;;;;;;;5.63;4.20;;;6.80;99.90;;;;;;472227;252;28396;-80
2023/01/04 09:33:04;;;;;;;5.90;3.70;;;6.80;99.90;;;;;;472249;250;28439;-76
2023/01/04 09:35:05;;;;;;;4.73;3.03;;;6.80;99.90;;;;;;472207;250;28390;-79
2023/01/04 09:37:06;;;;;;;5.80;3.50;;;6.90;99.90;;;;;;472199;250;28062;-80
2023/01/04 09:39:07;;;;;;;5.40;3.50;;;6.90;99.90;;;;;;472227;250;28035;-78
2023/01/04 09:41:09;;;;;;;4.00;3.50;;;6.80;99.90;;;;;;472221;250;27935;-76
2023/01/04 09:43:10;;;;;;;5.55;3.40;;;6.90;99.90;;;;;;472211;250;28597;-76
2023/01/04 09:45:11;;;;;;;5.77;3.80;;;6.90;99.90;;;;;;472218;250;28069;-79
2023/01/04 09:47:12;;;;;;;7.00;3.87;;;6.90;99.90;;;;;;472214;251;28430;-79
2023/01/04 09:49:14;;;;;;;6.05;3.72;;;6.90;99.90;;;;;;472231;250;27461;-79
2023/01/04 09:51:15;;;;;;;10.85;3.40;;;6.90;99.90;;;;;;472247;250;27422;-74
2023/01/04 09:53:16;;;;;;;3.97;3.00;;;6.90;99.90;;;;;;472234;250;27550;-75
2023/01/04 09:55:17;;;;;;;4.97;3.53;;;6.90;99.90;;;;;;472231;250;27912;-74
2023/01/04 09:57:19;;;;;;;5.70;3.83;;;6.90;99.90;;;;;;472217;250;27952;-74
2023/01/04 09:59:20;;;;;;;4.17;3.20;;;6.90;99.90;;;;;;472243;250;27692;-80
2023/01/04 10:01:21;;;;;;;4.80;3.43;;;7.00;99.90;;;;;;472261;247;28500;-79
2023/01/04 10:03:22;;;;;;;4.63;3.27;;;6.90;99.90;;;;;;472240;250;28766;-79
2023/01/04 10:05:24;;;;;;;5.13;2.70;;;7.00;99.90;;;;;;472224;250;28320;-80
2023/01/04 10:07:25;;;;;;;3.20;2.90;;;7.00;99.90;;;;;;472216;251;28481;-79
2023/01/04 10:09:26;;;;;;;3.47;3.17;;;7.00;99.90;;;;;;472202;250;28701;-80
2023/01/04 10:11:27;;;;;;;4.43;3.07;;;7.00;99.90;;;;;;472230;250;28345;-74
2023/01/04 10:13:29;;;;;;;3.27;2.80;;;7.10;99.90;;;;;;472244;250;27989;-79
2023/01/04 10:15:30;;;;;;;4.57;3.10;;;7.10;99.90;;;;;;472238;250;27775;-79
2023/01/04 10:17:31;;;;;;;4.67;3.13;;;7.10;99.90;;;;;;472244;250;27827;-79
2023/01/04 10:19:32;;;;;;;3.03;2.73;;;7.10;99.90;;;;;;472232;250;27567;-79
2023/01/04 10:21:34;;;;;;;3.30;2.87;;;7.10;99.90;;;;;;472246;250;27793;-78
2023/01/04 10:23:35;;;;;;;4.60;3.10;;;7.10;99.90;;;;;;472235;250;27826;-79
2023/01/04 10:25:36;;;;;;;8.73;3.30;;;7.10;99.90;;;;;;472233;251;27809;-78
2023/01/04 10:27:37;;;;;;;4.20;3.07;;;7.10;99.90;;;;;;472204;251;27979;-79
2023/01/04 10:29:39;;;;;;;4.27;3.00;;;7.10;99.90;;;;;;472243;250;27969;-79
2023/01/04 10:31:40;;;;;;;6.63;3.30;;;7.10;99.90;;;;;;472251;250;27793;-80
2023/01/04 10:33:41;;;;;;;3.20;2.90;;;7.10;99.90;;;;;;472253;250;28038;-79
2023/01/04 10:35:42;;;;;;;3.90;3.50;;;7.10;99.90;;;;;;472211;250;28122;-79
2023/01/04 10:37:44;;;;;;;4.87;3.23;;;7.10;99.90;;;;;;472216;250;27964;-78
2023/01/04 10:39:45;;;;;;;5.80;3.67;;;7.10;99.90;;;;;;472243;250;27809;-78
2023/01/04 10:41:46;;;;;;;4.80;3.37;;;7.10;99.90;;;;;;472236;251;28447;-79
2023/01/04 10:43:47;;;;;;;5.73;2.83;;;7.10;99.90;;;;;;472259;250;28404;-79
2023/01/04 10:45:49;;;;;;;5.67;3.67;;;7.10;99.90;;;;;;472233;250;28243;-78
2023/01/04 10:47:50;;;;;;;3.80;3.50;;;7.20;99.90;;;;;;472219;250;28476;-79
2023/01/04 10:49:52;;;;;;;8.23;3.60;;;7.20;99.90;;;;;;472268;250;28887;-79
2023/01/04 10:51:52;;;;;;;4.57;3.60;;;7.20;99.90;;;;;;472203;252;28079;-79
2023/01/04 10:53:54;;;;;;;3.70;2.90;;;7.10;99.90;;;;;;472198;250;27459;-78
2023/01/04 10:55:55;;;;;;;4.35;3.28;;;7.20;99.90;;;;;;472201;250;27930;-79
2023/01/04 10:57:56;;;;;;;6.30;3.67;;;7.10;99.90;;;;;;472245;251;27466;-80
2023/01/04 10:59:57;;;;;;;3.80;3.33;;;7.20;99.90;;;;;;472247;251;27546;-79
2023/01/04 11:01:59;;;;;;;7.20;3.87;;;7.20;99.90;;;;;;472235;251;27995;-79
2023/01/04 11:04:00;;;;;;;4.93;3.57;;;7.20;99.90;;;;;;472222;250;27945;-80
2023/01/04 11:06:02;;;;;;;5.40;3.47;;;7.20;99.90;;;;;;472212;250;28106;-79
2023/01/04 11:08:02;;;;;;;4.13;3.10;;;7.10;99.90;;;;;;472220;250;27826;-78
2023/01/04 11:10:04;;;;;;;5.10;3.30;;;7.20;99.90;;;;;;472226;250;29257;-80
2023/01/04 11:12:05;;;;;;;4.12;3.55;;;7.20;99.90;;;;;;472213;250;28502;-79
2023/01/04 11:14:06;;;;;;;4.40;3.00;;;7.20;99.90;;;;;;472230;250;28033;-79
2023/01/04 11:16:07;;;;;;;5.27;3.60;;;7.20;99.90;;;;;;472243;251;28380;-78
2023/01/04 11:18:10;;;;;;;9.27;3.73;;;7.20;99.90;;;;;;472258;250;27438;-79
2023/01/04 11:20:10;;;;;;;5.40;3.70;;;7.20;99.90;;;;;;472196;252;28899;-79
2023/01/04 11:22:11;;;;;;;4.97;3.43;;;7.20;99.90;;;;;;472283;250;28070;-79
2023/01/04 11:24:12;;;;;;;9.20;4.10;;;7.20;99.90;;;;;;472239;250;28951;-80
2023/01/04 11:26:14;;;;;;;5.50;3.27;;;7.30;99.90;;;;;;472210;250;27816;-79
2023/01/04 11:28:15;;;;;;;4.13;3.33;;;7.20;99.90;;;;;;472199;251;28084;-79
2023/01/04 11:30:16;;;;;;;3.50;3.20;;;7.20;99.90;;;;;;472232;250;27733;-80